Time;durP1;ratioP1;P1;durP2;ratioP2;P2;SDS_P1;SDS_P2;PMS_P1;PMS_P2;Temp;Humidity;BMP_temperature;BMP_pressure;BME280_temperature;BME280_humidity;BME280_pressure;Samples;Min_cycle;Max_cycle;Signal;HPM_P1;HPM_P2
2023/04/20 00:01:47;;;;;;;4.47;3.20;;;8.60;99.90;;;;;;4064234;29;20029;-67
2023/04/20 00:03:48;;;;;;;7.43;4.40;;;8.50;99.90;;;;;;4063277;29;20082;-66
2023/04/20 00:05:49;;;;;;;5.20;3.73;;;8.50;99.90;;;;;;4066188;29;20478;-70
2023/04/20 00:07:50;;;;;;;5.83;3.83;;;8.40;99.90;;;;;;4060979;28;20098;-65
2023/04/20 00:09:51;;;;;;;7.30;4.10;;;8.40;99.90;;;;;;4080053;29;20440;-66
2023/04/20 00:11:52;;;;;;;6.00;3.93;;;8.40;99.90;;;;;;4078802;29;20451;-66
2023/04/20 00:13:54;;;;;;;8.57;4.37;;;8.30;99.90;;;;;;4075641;29;20036;-73
2023/04/20 00:15:55;;;;;;;9.13;5.17;;;8.20;99.90;;;;;;4062981;29;20032;-72
2023/04/20 00:17:56;;;;;;;8.50;5.87;;;8.20;99.90;;;;;;4064166;29;20074;-66
2023/04/20 00:19:57;;;;;;;14.10;5.97;;;8.10;99.90;;;;;;4063077;29;20044;-72
2023/04/20 00:21:59;;;;;;;11.20;5.80;;;8.10;99.90;;;;;;4064083;29;20091;-67
2023/04/20 00:24:00;;;;;;;10.07;6.27;;;8.00;99.90;;;;;;4071800;29;20452;-65
2023/04/20 00:26:01;;;;;;;9.57;5.87;;;7.90;99.90;;;;;;4079223;29;20078;-69
2023/04/20 00:28:03;;;;;;;10.43;5.77;;;7.90;99.90;;;;;;4078691;29;20381;-72
2023/04/20 00:30:06;;;;;;;11.77;5.83;;;7.80;99.90;;;;;;4079094;29;20480;-65
2023/04/20 00:32:07;;;;;;;9.70;5.90;;;7.70;99.90;;;;;;4078604;29;20422;-66
2023/04/20 00:34:08;;;;;;;10.00;5.90;;;7.70;99.90;;;;;;4078537;29;20039;-65
2023/04/20 00:36:09;;;;;;;9.27;5.50;;;7.70;99.90;;;;;;4068120;29;20032;-66
2023/04/20 00:38:10;;;;;;;8.20;5.13;;;7.70;99.90;;;;;;4072597;29;20546;-68
2023/04/20 00:40:11;;;;;;;9.10;5.00;;;7.60;99.90;;;;;;4065286;29;20032;-67
2023/04/20 00:42:13;;;;;;;12.13;5.73;;;7.60;99.90;;;;;;4078405;29;20480;-65
2023/04/20 00:44:14;;;;;;;10.60;5.13;;;7.60;99.90;;;;;;4078720;29;20044;-70
2023/04/20 00:46:15;;;;;;;7.37;4.37;;;7.60;99.90;;;;;;4078319;29;20107;-65
2023/04/20 00:48:17;;;;;;;6.33;4.10;;;7.60;99.90;;;;;;4079461;29;20151;-69
2023/04/20 00:50:18;;;;;;;9.30;4.87;;;7.70;99.90;;;;;;4078309;29;20085;-72
2023/04/20 00:52:20;;;;;;;6.90;4.67;;;7.60;99.90;;;;;;4079489;29;20074;-73
2023/04/20 00:54:22;;;;;;;5.40;4.20;;;7.60;99.90;;;;;;4077329;29;20047;-66
2023/04/20 00:56:23;;;;;;;7.60;4.73;;;7.70;99.90;;;;;;4078451;29;20043;-65
2023/04/20 00:58:24;;;;;;;9.83;5.53;;;7.70;99.90;;;;;;4079222;28;20134;-73
2023/04/20 01:00:26;;;;;;;12.20;5.70;;;7.70;99.90;;;;;;4072402;29;20021;-64
2023/04/20 01:02:27;;;;;;;8.40;5.20;;;7.60;99.90;;;;;;4062993;29;20048;-69
2023/04/20 01:04:28;;;;;;;9.43;4.83;;;7.60;99.90;;;;;;4062433;29;20501;-66
2023/04/20 01:06:29;;;;;;;9.40;5.10;;;7.60;99.90;;;;;;4063069;29;20451;-68
2023/04/20 01:08:31;;;;;;;6.73;4.80;;;7.60;99.90;;;;;;4062006;28;20099;-73
2023/04/20 01:10:32;;;;;;;7.67;5.07;;;7.50;99.90;;;;;;4067774;29;20031;-68
2023/04/20 01:12:33;;;;;;;7.77;5.33;;;7.50;99.90;;;;;;4060607;29;20106;-66
2023/04/20 01:14:35;;;;;;;10.40;4.97;;;7.40;99.90;;;;;;4072700;29;20051;-73
2023/04/20 01:16:36;;;;;;;4.73;4.20;;;7.40;99.90;;;;;;4078003;29;20459;-66
2023/04/20 01:18:46;;;;;;;9.33;5.20;;;7.40;99.90;;;;;;4079052;29;20035;-67
2023/04/20 01:20:47;;;;;;;11.25;5.38;;;7.40;99.90;;;;;;4078157;29;20031;-66
2023/04/20 01:22:55;;;;;;;8.80;5.67;;;7.20;99.90;;;;;;4078691;29;20086;-66
2023/04/20 01:24:56;;;;;;;11.60;6.17;;;7.10;99.90;;;;;;4071408;29;20079;-71
2023/04/20 01:26:57;;;;;;;9.57;4.93;;;7.00;99.90;;;;;;4079090;29;20031;-65
2023/04/20 01:28:58;;;;;;;9.37;5.80;;;7.00;99.90;;;;;;4077725;29;20357;-69
2023/04/20 01:31:01;;;;;;;10.73;6.30;;;7.00;99.90;;;;;;4078757;29;20054;-66
2023/04/20 01:33:02;;;;;;;9.33;5.50;;;7.00;99.90;;;;;;4078278;29;20531;-67
2023/04/20 01:35:04;;;;;;;11.97;5.40;;;7.00;99.90;;;;;;4075831;29;20077;-65
2023/04/20 01:37:07;;;;;;;8.17;4.90;;;6.90;99.90;;;;;;4062220;29;20044;-65
2023/04/20 01:39:08;;;;;;;8.70;5.03;;;6.90;99.90;;;;;;4067108;29;20043;-65
2023/04/20 01:41:10;;;;;;;7.90;5.07;;;6.90;99.90;;;;;;4067763;29;20633;-66
2023/04/20 01:43:11;;;;;;;15.30;5.83;;;6.80;99.90;;;;;;4063028;29;20123;-77
2023/04/20 01:45:13;;;;;;;13.47;6.00;;;6.80;99.90;;;;;;4065852;29;20086;-65
2023/04/20 01:47:14;;;;;;;8.57;5.03;;;6.80;99.90;;;;;;4069907;29;20031;-65
2023/04/20 01:49:15;;;;;;;8.60;5.03;;;6.70;99.90;;;;;;4081770;29;20044;-65
2023/04/20 01:51:16;;;;;;;10.03;5.33;;;6.70;99.90;;;;;;4071008;29;20059;-65
2023/04/20 01:53:18;;;;;;;11.30;5.17;;;6.80;99.90;;;;;;4080692;29;20078;-64
2023/04/20 01:55:19;;;;;;;10.57;5.67;;;6.80;99.90;;;;;;4080346;29;20430;-65
2023/04/20 01:57:20;;;;;;;10.87;5.83;;;6.80;99.90;;;;;;4072452;29;20040;-65
2023/04/20 01:59:21;;;;;;;14.73;5.50;;;6.80;99.90;;;;;;4064748;29;20078;-65
2023/04/20 02:01:22;;;;;;;9.03;5.40;;;6.70;99.90;;;;;;4065620;29;20036;-67
2023/04/20 02:03:24;;;;;;;12.50;5.53;;;6.70;99.90;;;;;;4065126;29;20020;-66
2023/04/20 02:05:25;;;;;;;9.90;4.93;;;6.70;99.90;;;;;;4065407;29;20542;-69
2023/04/20 02:07:26;;;;;;;13.47;5.13;;;6.60;99.90;;;;;;4064953;29;20039;-66
2023/04/20 02:09:28;;;;;;;10.50;5.37;;;6.60;99.90;;;;;;4064665;28;20508;-76
2023/04/20 02:11:29;;;;;;;7.93;5.23;;;6.50;99.90;;;;;;4056080;29;20494;-75
2023/04/20 02:13:30;;;;;;;11.60;5.33;;;6.50;99.90;;;;;;4052987;29;20060;-72
2023/04/20 02:15:31;;;;;;;6.83;4.70;;;6.40;99.90;;;;;;4065449;29;20028;-70
2023/04/20 02:17:32;;;;;;;12.93;6.00;;;6.40;99.90;;;;;;4063922;29;20040;-66
2023/04/20 02:19:34;;;;;;;8.93;4.83;;;6.40;99.90;;;;;;4065427;29;20424;-69
2023/04/20 02:21:35;;;;;;;8.43;4.97;;;6.30;99.90;;;;;;4064390;29;20032;-65
2023/04/20 02:23:36;;;;;;;8.80;5.00;;;6.40;99.90;;;;;;4073670;29;20087;-69
2023/04/20 02:25:38;;;;;;;10.40;4.67;;;6.30;99.90;;;;;;4077571;29;20070;-65
2023/04/20 02:27:39;;;;;;;10.53;5.33;;;6.30;99.90;;;;;;4078731;29;20032;-65
2023/04/20 02:29:40;;;;;;;12.87;5.37;;;6.30;99.90;;;;;;4079883;29;20091;-65
2023/04/20 02:31:41;;;;;;;8.37;5.23;;;6.20;99.90;;;;;;4081127;29;20024;-66
2023/04/20 02:33:43;;;;;;;7.87;4.80;;;6.20;99.90;;;;;;4080289;29;20040;-66
2023/04/20 02:35:44;;;;;;;8.10;5.53;;;6.20;99.90;;;;;;4080540;29;20093;-67
2023/04/20 02:37:46;;;;;;;9.80;5.10;;;6.10;99.90;;;;;;4079367;29;20032;-70
2023/04/20 02:39:47;;;;;;;9.27;5.03;;;6.00;99.90;;;;;;4078681;29;21451;-73
2023/04/20 02:41:48;;;;;;;7.63;5.27;;;6.00;99.90;;;;;;4080381;29;20028;-66
2023/04/20 02:43:49;;;;;;;9.23;5.17;;;6.00;99.90;;;;;;4067261;29;20032;-66
2023/04/20 02:45:50;;;;;;;9.57;5.50;;;6.00;99.90;;;;;;4068041;29;20061;-66
2023/04/20 02:47:51;;;;;;;7.27;4.30;;;6.00;99.90;;;;;;4079020;29;20342;-66
2023/04/20 02:49:52;;;;;;;9.37;5.87;;;6.00;99.90;;;;;;4063567;29;20111;-66
2023/04/20 02:51:54;;;;;;;10.63;5.27;;;5.90;99.90;;;;;;4079686;29;20031;-65
2023/04/20 02:53:55;;;;;;;8.20;5.17;;;5.90;99.90;;;;;;4080374;29;20077;-66
2023/04/20 02:55:56;;;;;;;11.43;5.80;;;5.80;99.90;;;;;;4079043;29;20526;-67
2023/04/20 02:57:57;;;;;;;7.73;5.87;;;5.80;99.90;;;;;;4080775;29;20043;-66
2023/04/20 02:59:58;;;;;;;7.53;4.93;;;5.80;99.90;;;;;;4078735;29;20043;-65
2023/04/20 03:01:59;;;;;;;8.53;5.00;;;5.80;99.90;;;;;;4080893;29;20554;-67
2023/04/20 03:04:00;;;;;;;8.07;4.10;;;5.80;99.90;;;;;;4072321;29;20715;-66
2023/04/20 03:06:02;;;;;;;8.17;4.87;;;5.80;99.90;;;;;;4064600;29;20029;-73
2023/04/20 03:08:05;;;;;;;6.50;4.20;;;5.80;99.90;;;;;;4063850;28;20060;-69
2023/04/20 03:10:07;;;;;;;8.43;4.40;;;5.90;99.90;;;;;;4064321;29;20091;-65
2023/04/20 03:12:09;;;;;;;8.13;4.30;;;5.90;99.90;;;;;;4064753;29;20040;-74
2023/04/20 03:14:10;;;;;;;9.17;4.67;;;5.90;99.90;;;;;;4063488;29;20044;-71
2023/04/20 03:16:11;;;;;;;9.77;5.10;;;5.90;99.90;;;;;;4063782;29;20489;-68
2023/04/20 03:18:12;;;;;;;6.37;4.77;;;5.90;99.90;;;;;;4046474;29;20096;-75
2023/04/20 03:20:14;;;;;;;8.93;5.53;;;5.90;99.90;;;;;;4064604;29;20029;-77
2023/04/20 03:22:18;;;;;;;16.40;5.77;;;5.90;99.90;;;;;;4063616;29;20040;-75
2023/04/20 03:24:19;;;;;;;9.60;4.60;;;5.90;99.90;;;;;;4064288;29;20082;-65
2023/04/20 03:26:20;;;;;;;7.50;4.17;;;5.90;99.90;;;;;;4063451;29;20094;-65
2023/04/20 03:28:23;;;;;;;7.13;4.60;;;5.90;99.90;;;;;;4073633;29;20031;-72
2023/04/20 03:30:24;;;;;;;6.53;4.60;;;5.90;99.90;;;;;;4079054;29;20024;-73
2023/04/20 03:32:26;;;;;;;8.53;4.87;;;5.90;99.90;;;;;;4080611;29;20187;-66
2023/04/20 03:34:27;;;;;;;11.00;5.40;;;5.90;99.90;;;;;;4078938;29;20031;-67
2023/04/20 03:36:28;;;;;;;9.63;4.70;;;5.90;99.90;;;;;;4080136;29;20040;-68
2023/04/20 03:38:30;;;;;;;13.13;4.80;;;5.90;99.90;;;;;;4071197;29;20070;-74
2023/04/20 03:40:31;;;;;;;10.37;4.50;;;5.90;99.90;;;;;;4075959;29;20041;-67
2023/04/20 03:42:32;;;;;;;7.57;5.07;;;5.90;99.90;;;;;;4079257;29;20035;-65
2023/04/20 03:44:33;;;;;;;7.10;4.37;;;5.90;99.90;;;;;;4079534;29;20043;-66
2023/04/20 03:46:35;;;;;;;9.47;5.10;;;5.80;99.90;;;;;;4077910;29;20564;-66
2023/04/20 03:48:36;;;;;;;6.67;5.33;;;5.80;99.90;;;;;;4079096;29;20016;-71
2023/04/20 03:50:37;;;;;;;11.33;5.50;;;5.90;99.90;;;;;;4079844;29;20058;-65
2023/04/20 03:52:38;;;;;;;11.77;5.20;;;5.90;99.90;;;;;;4072319;29;20036;-67
2023/04/20 03:54:39;;;;;;;9.30;4.73;;;6.10;99.90;;;;;;4063314;29;20103;-69
2023/04/20 03:56:41;;;;;;;6.73;4.27;;;6.40;99.90;;;;;;4062735;29;20048;-67
2023/04/20 03:58:42;;;;;;;8.73;4.67;;;6.70;99.90;;;;;;4068291;29;20093;-66
2023/04/20 04:00:43;;;;;;;10.70;5.20;;;7.10;99.90;;;;;;4069545;29;20074;-67
2023/04/20 04:02:44;;;;;;;8.63;4.93;;;7.50;99.90;;;;;;4066192;29;20040;-66
2023/04/20 04:04:46;;;;;;;8.07;4.73;;;7.90;99.90;;;;;;4070672;29;20500;-66
2023/04/20 04:06:47;;;;;;;10.73;5.63;;;8.10;99.90;;;;;;4062998;29;20044;-70
2023/04/20 04:08:48;;;;;;;10.23;3.87;;;8.40;99.90;;;;;;4063515;28;20048;-66
2023/04/20 04:10:49;;;;;;;8.57;4.40;;;8.70;99.90;;;;;;4067256;29;20036;-66
2023/04/20 04:12:50;;;;;;;8.50;4.33;;;9.00;99.90;;;;;;4062943;29;20098;-64
2023/04/20 04:14:52;;;;;;;8.37;4.30;;;9.40;99.90;;;;;;4062750;29;20117;-65
2023/04/20 04:16:53;;;;;;;8.10;3.83;;;9.70;99.90;;;;;;4063585;29;20428;-65
2023/04/20 04:18:54;;;;;;;6.87;3.87;;;10.00;99.90;;;;;;4068054;29;20564;-65
2023/04/20 04:20:55;;;;;;;7.50;3.83;;;10.30;99.90;;;;;;4063385;29;20424;-64
2023/04/20 04:22:57;;;;;;;6.60;3.90;;;10.70;99.90;;;;;;4063353;29;20475;-64
2023/04/20 04:24:58;;;;;;;6.60;3.60;;;11.20;99.90;;;;;;4063869;29;20094;-65
2023/04/20 04:27:01;;;;;;;7.53;3.70;;;11.50;99.90;;;;;;4060674;29;20078;-63
2023/04/20 04:29:03;;;;;;;6.67;3.43;;;11.60;99.90;;;;;;4056883;29;20070;-66
2023/04/20 04:31:08;;;;;;;7.57;3.87;;;11.90;99.90;;;;;;4058039;29;20826;-64
2023/04/20 04:33:11;;;;;;;8.10;3.77;;;12.50;99.90;;;;;;4059286;29;20086;-69
2023/04/20 04:35:12;;;;;;;9.33;4.83;;;12.80;99.90;;;;;;4057844;29;20102;-69
2023/04/20 04:37:14;;;;;;;7.13;3.67;;;12.70;99.90;;;;;;4055689;28;20090;-65
2023/04/20 04:39:15;;;;;;;9.17;3.87;;;13.00;99.90;;;;;;4057966;29;20028;-67
2023/04/20 04:41:17;;;;;;;6.33;3.47;;;13.40;99.90;;;;;;4059894;29;20527;-69
2023/04/20 04:43:19;;;;;;;6.07;3.73;;;13.70;99.90;;;;;;4043013;28;20107;-63
2023/04/20 04:45:20;;;;;;;8.07;4.90;;;14.10;99.90;;;;;;4047166;29;20140;-62
2023/04/20 04:47:22;;;;;;;6.53;3.23;;;14.40;99.90;;;;;;4062593;28;20070;-64
2023/04/20 04:49:23;;;;;;;10.00;3.50;;;14.30;99.90;;;;;;4061605;29;20032;-63
2023/04/20 05:23:24;;;;;;;;;;;16.30;95.60;;;;;;4155595;27;2196027;-69
2023/04/20 05:25:25;;;;;;;;;;;18.70;91.50;;;;;;4217626;28;20802;-68
2023/04/20 05:27:26;;;;;;;3.58;2.80;;;18.90;90.40;;;;;;4218784;28;19953;-69
2023/04/20 05:29:27;;;;;;;6.05;3.65;;;18.90;92.30;;;;;;4219870;28;20140;-69
2023/04/20 05:31:29;;;;;;;8.95;3.67;;;18.90;92.00;;;;;;4204672;28;20448;-68
2023/04/20 05:33:30;;;;;;;6.13;3.50;;;19.00;91.50;;;;;;4204459;28;20082;-69
2023/04/20 05:35:31;;;;;;;9.73;3.55;;;18.70;91.30;;;;;;4216758;28;20031;-69
2023/04/20 05:37:33;;;;;;;3.85;2.72;;;18.70;91.20;;;;;;4199069;28;20036;-70
2023/04/20 05:39:34;;;;;;;5.47;3.63;;;18.70;91.00;;;;;;4203136;28;20087;-68
2023/04/20 05:41:35;;;;;;;6.40;3.78;;;18.80;90.70;;;;;;4204604;28;20368;-67
2023/04/20 05:43:36;;;;;;;5.20;3.55;;;19.00;90.30;;;;;;4191672;28;20087;-69
2023/04/20 05:45:38;;;;;;;6.25;3.85;;;19.30;89.80;;;;;;4219035;28;20392;-69
2023/04/20 05:47:39;;;;;;;7.75;3.03;;;19.70;89.00;;;;;;4210095;28;20040;-69
2023/04/20 05:49:40;;;;;;;7.03;3.42;;;20.10;87.50;;;;;;4194592;28;20032;-65
2023/04/20 05:51:41;;;;;;;8.70;3.40;;;20.40;86.30;;;;;;4217634;28;20086;-69
2023/04/20 05:53:42;;;;;;;3.60;2.90;;;20.60;85.50;;;;;;4208821;28;20029;-69
2023/04/20 05:55:43;;;;;;;5.90;3.25;;;20.80;84.60;;;;;;4216609;28;20444;-69
2023/04/20 05:57:45;;;;;;;9.98;5.25;;;21.10;83.40;;;;;;4213931;28;20082;-70
2023/04/20 05:59:46;;;;;;;7.93;4.50;;;21.40;82.40;;;;;;4224124;28;20077;-68
2023/04/20 06:01:47;;;;;;;13.30;3.83;;;21.70;81.40;;;;;;4214035;28;20110;-70
2023/04/20 06:03:48;;;;;;;6.78;3.90;;;21.90;80.70;;;;;;4205767;28;20036;-71
2023/04/20 06:05:50;;;;;;;7.70;3.60;;;21.70;79.70;;;;;;4198709;28;20894;-72
2023/04/20 06:07:51;;;;;;;5.68;3.75;;;21.70;79.10;;;;;;4193965;28;20048;-67
2023/04/20 06:09:53;;;;;;;6.78;4.10;;;21.70;79.10;;;;;;4195192;28;20075;-74
2023/04/20 06:11:54;;;;;;;8.27;3.83;;;21.90;78.60;;;;;;4194948;28;20093;-74
2023/04/20 06:13:56;;;;;;;6.82;3.97;;;22.00;77.80;;;;;;4213410;28;20382;-73
2023/04/20 06:15:57;;;;;;;6.75;3.75;;;22.10;77.70;;;;;;4218202;28;20032;-76
2023/04/20 06:17:58;;;;;;;5.97;3.92;;;22.00;77.00;;;;;;4200455;28;20040;-78
2023/04/20 06:19:59;;;;;;;8.43;4.28;;;21.50;76.80;;;;;;4198878;28;20086;-79
2023/04/20 06:22:05;;;;;;;6.13;3.60;;;21.40;77.70;;;;;;4190771;28;20122;-77
2023/04/20 06:24:07;;;;;;;9.43;3.80;;;21.30;77.10;;;;;;4201583;28;20026;-79
2023/04/20 06:26:09;;;;;;;5.15;3.30;;;21.20;77.40;;;;;;4183845;28;20098;-78
2023/04/20 06:28:10;;;;;;;7.30;3.55;;;21.30;77.20;;;;;;4199852;28;20044;-74
2023/04/20 06:30:11;;;;;;;7.80;3.25;;;21.50;77.20;;;;;;4195620;28;20028;-75
2023/04/20 06:32:13;;;;;;;8.07;4.10;;;21.30;76.60;;;;;;4196336;28;20040;-78
2023/04/20 06:34:15;;;;;;;5.65;3.67;;;20.90;77.40;;;;;;4195423;28;20090;-66
2023/04/20 06:36:16;;;;;;;13.50;3.50;;;20.80;77.40;;;;;;4212484;28;20032;-73
2023/04/20 06:38:17;;;;;;;5.47;3.13;;;20.80;77.30;;;;;;4211304;28;20040;-74
2023/04/20 06:40:18;;;;;;;4.65;3.40;;;21.10;77.00;;;;;;4192133;28;20093;-68
2023/04/20 06:42:20;;;;;;;7.30;4.05;;;21.40;76.40;;;;;;4179032;28;20091;-76
2023/04/20 06:44:21;;;;;;;7.35;3.45;;;21.70;75.30;;;;;;4188291;28;20542;-75
2023/04/20 06:46:22;;;;;;;5.47;2.97;;;21.90;75.00;;;;;;4194555;28;20036;-73
2023/04/20 06:48:23;;;;;;;8.13;3.65;;;21.80;74.60;;;;;;4195389;28;20040;-69
2023/04/20 06:50:24;;;;;;;6.93;3.25;;;22.00;74.60;;;;;;4195604;28;20086;-73
2023/04/20 06:52:26;;;;;;;3.25;2.95;;;21.60;74.70;;;;;;4190732;28;20049;-74
2023/04/20 06:54:28;;;;;;;6.93;3.28;;;21.60;74.70;;;;;;4184128;28;20465;-75
2023/04/20 06:56:29;;;;;;;15.13;3.53;;;22.10;74.50;;;;;;4177859;28;20115;-73
2023/04/20 06:58:30;;;;;;;5.00;3.03;;;21.80;74.30;;;;;;4193315;28;20124;-74
2023/04/20 07:00:31;;;;;;;4.57;2.38;;;21.80;74.60;;;;;;4194716;28;20082;-80
2023/04/20 07:02:44;;;;;;;4.38;2.40;;;21.20;74.30;;;;;;4193698;28;20098;-72
2023/04/20 07:04:45;;;;;;;4.78;2.97;;;20.40;75.10;;;;;;4194436;28;20032;-78
2023/04/20 07:06:48;;;;;;;6.10;2.30;;;20.30;76.80;;;;;;4192086;28;20066;-73
2023/04/20 07:08:49;;;;;;;7.03;2.50;;;20.50;76.70;;;;;;4195333;28;20121;-75
2023/04/20 07:10:50;;;;;;;3.58;2.63;;;20.90;76.20;;;;;;4195414;28;20101;-74
2023/04/20 07:12:51;;;;;;;6.47;3.22;;;20.60;76.40;;;;;;4189898;28;20117;-75
2023/04/20 07:14:53;;;;;;;3.85;2.05;;;20.50;76.80;;;;;;4195952;28;20036;-69
2023/04/20 07:16:54;;;;;;;5.13;2.13;;;20.00;77.60;;;;;;4199222;28;20047;-78
2023/04/20 07:18:55;;;;;;;3.65;1.80;;;19.40;76.20;;;;;;4184322;28;20087;-70
2023/04/20 07:20:56;;;;;;;2.65;1.58;;;18.30;78.00;;;;;;4178465;28;20076;-77
2023/04/20 07:22:57;;;;;;;5.25;2.20;;;17.60;79.50;;;;;;4178649;28;20044;-76
2023/04/20 07:25:01;;;;;;;2.80;1.60;;;17.20;80.90;;;;;;4178342;28;20098;-75
2023/04/20 07:27:02;;;;;;;4.20;1.70;;;17.10;82.20;;;;;;4180144;28;20078;-80
2023/04/20 07:29:04;;;;;;;5.25;1.48;;;16.90;82.40;;;;;;4185130;28;20094;-75
2023/04/20 07:31:05;;;;;;;4.32;1.85;;;16.50;82.50;;;;;;4195440;28;20028;-78
2023/04/20 07:33:07;;;;;;;3.33;1.40;;;16.10;83.40;;;;;;4179234;28;20033;-76
2023/04/20 07:35:09;;;;;;;2.08;1.33;;;15.90;84.20;;;;;;4190393;28;20060;-80
2023/04/20 07:37:11;;;;;;;4.32;1.42;;;16.00;84.30;;;;;;4195359;28;20462;-69
2023/04/20 07:39:14;;;;;;;2.67;1.60;;;16.10;84.30;;;;;;4191071;28;20089;-77
2023/04/20 07:41:15;;;;;;;3.45;1.67;;;16.00;84.40;;;;;;4200728;28;20069;-76
2023/04/20 07:43:16;;;;;;;3.00;1.20;;;15.90;83.50;;;;;;4183081;28;20161;-78
2023/04/20 07:45:19;;;;;;;3.70;1.55;;;15.80;83.60;;;;;;4195660;28;20032;-78
2023/04/20 07:47:20;;;;;;;3.78;1.75;;;15.50;84.60;;;;;;4194590;28;20040;-78
2023/04/20 07:49:21;;;;;;;3.05;1.38;;;15.40;85.00;;;;;;4195365;28;20456;-75
2023/04/20 07:51:22;;;;;;;2.83;1.50;;;15.30;84.10;;;;;;4174681;28;20485;-77
2023/04/20 07:53:23;;;;;;;2.40;1.25;;;15.30;84.90;;;;;;4212055;28;20052;-76
2023/04/20 07:55:24;;;;;;;2.28;1.88;;;15.20;85.30;;;;;;4210549;28;20317;-71
2023/04/20 07:57:27;;;;;;;2.75;1.88;;;15.30;85.90;;;;;;4205445;28;20040;-78
2023/04/20 07:59:29;;;;;;;2.53;1.40;;;15.60;85.60;;;;;;4181704;28;20541;-78
2023/04/20 08:01:31;;;;;;;2.10;1.50;;;15.60;84.40;;;;;;4195904;28;20035;-70
2023/04/20 08:03:35;;;;;;;3.47;1.67;;;15.80;84.40;;;;;;4211082;28;20517;-77
2023/04/20 08:05:37;;;;;;;4.68;1.13;;;15.80;84.60;;;;;;4192623;28;20102;-78
2023/04/20 08:07:38;;;;;;;6.70;2.13;;;15.80;84.50;;;;;;4192633;28;20033;-77
2023/04/20 08:09:39;;;;;;;3.10;1.35;;;15.80;84.60;;;;;;4210908;28;20024;-78
2023/04/20 08:11:41;;;;;;;2.85;1.60;;;15.80;84.60;;;;;;4186675;28;20044;-70
2023/04/20 08:13:42;;;;;;;2.65;0.88;;;16.00;84.30;;;;;;4177545;28;20033;-69
2023/04/20 08:15:43;;;;;;;1.38;1.20;;;16.20;84.10;;;;;;4182212;28;20032;-79
2023/04/20 08:17:44;;;;;;;5.57;1.50;;;16.40;83.70;;;;;;4194018;28;20081;-75
2023/04/20 08:19:46;;;;;;;2.05;1.55;;;16.50;83.90;;;;;;4195892;28;20482;-77
2023/04/20 08:21:47;;;;;;;2.85;1.70;;;16.80;83.70;;;;;;4192865;28;20073;-72
2023/04/20 08:23:48;;;;;;;3.72;1.38;;;17.30;84.10;;;;;;4194415;28;20058;-74
2023/04/20 08:25:49;;;;;;;1.38;1.10;;;18.00;83.20;;;;;;4187832;28;20032;-74
2023/04/20 08:27:50;;;;;;;2.95;1.27;;;18.40;82.50;;;;;;4191367;28;20476;-72
2023/04/20 08:29:52;;;;;;;2.25;1.23;;;18.50;82.40;;;;;;4193722;28;20069;-72
2023/04/20 08:31:53;;;;;;;7.03;1.88;;;18.60;82.60;;;;;;4194846;28;20028;-78
2023/04/20 08:33:54;;;;;;;4.53;1.65;;;19.00;82.40;;;;;;4183605;28;20045;-71
2023/04/20 08:35:55;;;;;;;4.25;1.77;;;19.10;81.80;;;;;;4178082;28;20083;-72
2023/04/20 08:37:56;;;;;;;3.45;1.60;;;19.00;81.30;;;;;;4178323;28;20076;-74
2023/04/20 08:39:57;;;;;;;3.60;1.50;;;18.60;81.10;;;;;;4183869;28;20062;-77
2023/04/20 08:41:58;;;;;;;2.10;1.90;;;18.20;82.00;;;;;;4194309;28;20423;-67
2023/04/20 08:44:00;;;;;;;3.72;1.75;;;18.00;82.50;;;;;;4171412;28;20061;-74
2023/04/20 08:46:03;;;;;;;2.35;1.20;;;18.00;82.60;;;;;;4160854;28;20042;-74
2023/04/20 08:48:09;;;;;;;1.20;1.10;;;18.20;81.90;;;;;;4176593;28;20033;-70
2023/04/20 08:50:10;;;;;;;4.20;1.88;;;18.40;81.00;;;;;;4206622;28;20039;-76
2023/04/20 08:52:11;;;;;;;3.50;1.42;;;18.40;80.50;;;;;;4207215;28;20050;-76
2023/04/20 08:54:13;;;;;;;2.25;1.38;;;18.70;80.70;;;;;;4187406;28;20083;-75
2023/04/20 08:56:14;;;;;;;2.20;1.38;;;18.40;79.50;;;;;;4178921;28;20094;-75
2023/04/20 08:58:16;;;;;;;3.90;1.30;;;18.00;79.30;;;;;;4203900;28;20029;-75
2023/04/20 09:00:18;;;;;;;3.50;1.40;;;17.80;80.30;;;;;;4188438;28;20016;-74
2023/04/20 09:02:19;;;;;;;3.58;1.55;;;17.70;80.50;;;;;;4184830;28;20451;-75
2023/04/20 09:04:22;;;;;;;3.00;1.40;;;17.80;80.70;;;;;;4191686;28;20040;-72
2023/04/20 09:06:23;;;;;;;6.03;1.52;;;18.00;80.30;;;;;;4179761;28;20381;-75
2023/04/20 09:08:35;;;;;;;2.67;1.17;;;18.10;80.30;;;;;;4177073;28;20456;-77
2023/04/20 09:10:44;;;;;;;3.60;1.38;;;18.30;79.30;;;;;;4177757;28;20086;-77
2023/04/20 09:12:45;;;;;;;6.65;1.83;;;18.20;79.20;;;;;;4176690;28;20048;-72
2023/04/20 09:14:47;;;;;;;3.10;1.30;;;18.40;80.40;;;;;;4191411;28;20028;-72
2023/04/20 09:17:00;;;;;;;3.42;1.40;;;18.70;79.80;;;;;;4192602;28;20419;-76
2023/04/20 09:19:01;;;;;;;4.43;1.55;;;19.10;79.60;;;;;;4190797;28;20082;-64
2023/04/20 09:21:11;;;;;;;6.25;1.60;;;19.20;79.20;;;;;;4207230;28;20028;-76
2023/04/20 09:23:14;;;;;;;4.07;1.58;;;19.40;78.90;;;;;;4210980;28;20051;-77
2023/04/20 09:25:16;;;;;;;5.28;1.40;;;19.60;78.80;;;;;;4210868;28;20545;-72
2023/04/20 09:27:18;;;;;;;3.40;1.40;;;19.90;78.10;;;;;;4210053;28;20020;-78
2023/04/20 09:29:21;;;;;;;4.50;1.50;;;20.10;77.90;;;;;;4192079;28;20476;-72
2023/04/20 09:31:22;;;;;;;2.85;1.55;;;20.10;77.20;;;;;;4207876;28;20093;-76
2023/04/20 09:33:28;;;;;;;2.42;1.48;;;20.00;77.30;;;;;;4211247;28;20032;-77
2023/04/20 09:35:29;;;;;;;5.28;1.70;;;19.90;77.50;;;;;;4209777;28;20073;-72
2023/04/20 09:37:31;;;;;;;2.00;1.30;;;19.90;77.40;;;;;;4210778;28;20085;-63
2023/04/20 09:39:32;;;;;;;3.42;1.27;;;19.90;77.70;;;;;;4208955;28;20503;-70
2023/04/20 09:41:35;;;;;;;3.90;1.70;;;19.80;77.90;;;;;;4189777;28;20033;-79
2023/04/20 09:43:36;;;;;;;4.18;1.88;;;19.80;78.10;;;;;;4176194;28;20037;-63
2023/04/20 09:45:38;;;;;;;3.08;1.77;;;19.80;78.30;;;;;;4192969;28;20085;-78
2023/04/20 09:47:41;;;;;;;1.92;1.48;;;19.90;77.40;;;;;;4202796;28;20065;-75
2023/04/20 09:49:48;;;;;;;3.90;1.70;;;19.60;77.20;;;;;;4203294;28;20082;-77
2023/04/20 09:51:49;;;;;;;3.53;2.10;;;19.20;78.00;;;;;;4188352;28;20087;-75
2023/04/20 09:53:53;;;;;;;5.03;2.15;;;18.90;78.20;;;;;;4159745;28;20046;-64
2023/04/20 09:55:55;;;;;;;4.45;1.73;;;18.30;79.10;;;;;;4176754;28;20024;-73
2023/04/20 09:57:57;;;;;;;6.28;1.60;;;18.00;79.60;;;;;;4191300;28;20024;-77
2023/04/20 10:00:00;;;;;;;2.90;1.48;;;17.60;79.90;;;;;;4212503;28;20413;-74
2023/04/20 10:02:06;;;;;;;3.45;1.80;;;17.50;80.10;;;;;;4190020;28;20041;-74
2023/04/20 10:04:09;;;;;;;4.97;1.50;;;17.40;80.40;;;;;;4196841;28;20040;-70
2023/04/20 10:06:23;;;;;;;6.15;2.45;;;17.70;80.60;;;;;;4189460;28;20045;-76
2023/04/20 10:08:24;;;;;;;3.05;1.90;;;17.90;80.50;;;;;;4161557;28;20119;-68
2023/04/20 10:10:26;;;;;;;6.15;1.98;;;18.00;80.20;;;;;;4178293;28;20037;-76
2023/04/20 10:12:27;;;;;;;5.07;2.15;;;18.10;80.10;;;;;;4181368;28;20090;-70
2023/04/20 10:14:29;;;;;;;2.95;1.95;;;17.90;79.20;;;;;;4179255;28;20037;-68
2023/04/20 10:16:31;;;;;;;1.83;1.40;;;17.70;79.70;;;;;;4180097;28;20025;-72
2023/04/20 10:18:32;;;;;;;5.22;1.58;;;17.50;79.90;;;;;;4177895;28;20060;-70
2023/04/20 10:20:33;;;;;;;6.63;1.85;;;17.40;79.90;;;;;;4180268;28;20032;-74
2023/04/20 10:22:34;;;;;;;2.05;1.38;;;17.50;80.50;;;;;;4178872;28;20057;-77
2023/04/20 10:24:38;;;;;;;4.07;1.83;;;17.70;80.40;;;;;;4181788;28;20771;-77
2023/04/20 10:26:44;;;;;;;5.72;1.95;;;17.60;80.10;;;;;;4160826;28;20091;-72
2023/04/20 10:28:45;;;;;;;9.40;3.13;;;17.60;80.50;;;;;;4161649;28;20033;-72
2023/04/20 10:30:51;;;;;;;3.38;2.08;;;17.50;80.70;;;;;;4178518;28;20029;-72
2023/04/20 10:33:10;;;;;;;7.05;1.85;;;17.60;80.70;;;;;;4179770;28;20082;-75
2023/04/20 10:35:12;;;;;;;6.10;1.80;;;17.60;79.90;;;;;;4179355;28;20032;-76
2023/04/20 10:37:14;;;;;;;3.40;1.90;;;17.50;80.50;;;;;;4192381;28;20028;-78
2023/04/20 10:39:21;;;;;;;4.75;1.73;;;17.60;80.50;;;;;;4194772;28;20054;-79
2023/04/20 10:41:22;;;;;;;12.75;2.45;;;17.50;80.10;;;;;;4195875;28;20032;-76
2023/04/20 10:43:24;;;;;;;10.27;2.40;;;17.40;80.50;;;;;;4192792;28;20102;-77
2023/04/20 10:45:35;;;;;;;3.47;1.90;;;17.40;80.90;;;;;;4196129;28;20032;-71
2023/04/20 10:47:39;;;;;;;5.93;1.65;;;17.20;80.80;;;;;;4184709;28;20078;-80
2023/04/20 10:49:40;;;;;;;2.30;1.63;;;17.10;80.60;;;;;;4191283;28;20024;-77
2023/04/20 10:51:51;;;;;;;2.83;1.63;;;17.00;80.60;;;;;;4195728;28;20082;-75
2023/04/20 10:54:06;;;;;;;3.97;1.52;;;17.00;80.90;;;;;;4181003;28;20063;-77
2023/04/20 10:56:07;;;;;;;3.80;1.30;;;17.20;81.10;;;;;;4184940;28;20039;-79
2023/04/20 10:58:08;;;;;;;7.30;1.90;;;17.30;80.90;;;;;;4195842;28;20040;-75
2023/04/20 11:00:29;;;;;;;4.72;1.83;;;17.40;80.20;;;;;;4194741;28;20012;-75
2023/04/20 11:02:30;;;;;;;7.30;1.77;;;17.30;80.50;;;;;;4191133;28;20082;-80
2023/04/20 11:04:32;;;;;;;4.13;1.48;;;17.30;80.50;;;;;;4195439;28;20377;-79
2023/04/20 11:06:34;;;;;;;6.00;1.65;;;17.40;80.60;;;;;;4189971;28;20037;-81
2023/04/20 11:08:37;;;;;;;4.50;1.98;;;17.40;80.20;;;;;;4180648;28;20091;-78
2023/04/20 11:10:41;;;;;;;2.55;1.45;;;17.30;80.10;;;;;;4178746;28;20074;-79